createdAt,value
2023-04-22T00:00:51.957Z,3.10
2023-04-22T00:03:19.664Z,3.55
2023-04-22T00:05:47.821Z,4.07
2023-04-22T00:08:15.459Z,3.80
2023-04-22T00:10:43.164Z,3.33
2023-04-22T00:13:10.863Z,2.92
2023-04-22T00:15:38.795Z,2.90
2023-04-22T00:18:07.426Z,4.32
2023-04-22T00:20:36.551Z,2.70
2023-04-22T00:23:04.418Z,3.42
2023-04-22T00:25:31.980Z,2.88
2023-04-22T00:27:59.565Z,3.25
2023-04-22T00:30:27.185Z,3.72
2023-04-22T00:32:55.267Z,3.00
2023-04-22T00:35:23.084Z,3.85
2023-04-22T00:37:51.134Z,3.47
2023-04-22T00:40:18.925Z,3.13
2023-04-22T00:42:49.423Z,3.05
2023-04-22T00:45:19.919Z,2.90
2023-04-22T00:47:48.699Z,2.70
2023-04-22T00:50:16.711Z,3.25
2023-04-22T00:52:44.602Z,2.10
2023-04-22T00:55:12.694Z,3.45
2023-04-22T00:57:41.038Z,2.33
2023-04-22T01:00:12.101Z,3.50
2023-04-22T01:02:40.160Z,3.08
2023-04-22T01:05:12.032Z,2.92
2023-04-22T01:07:39.815Z,2.80
2023-04-22T01:10:08.061Z,2.80
2023-04-22T01:12:35.648Z,2.78
2023-04-22T01:15:05.047Z,3.45
2023-04-22T01:17:34.546Z,3.40
2023-04-22T01:20:04.430Z,2.70
2023-04-22T01:22:40.599Z,2.85
2023-04-22T01:25:11.197Z,2.78
2023-04-22T01:27:39.782Z,3.22
2023-04-22T01:30:08.690Z,2.90
2023-04-22T01:32:36.751Z,3.15
2023-04-22T01:35:04.746Z,3.30
2023-04-22T01:37:32.396Z,3.50
2023-04-22T01:40:00.417Z,4.90
2023-04-22T01:42:28.851Z,5.70
2023-04-22T01:44:56.520Z,4.00
2023-04-22T01:47:24.247Z,3.45
2023-04-22T01:49:52.616Z,3.25
2023-04-22T01:52:20.966Z,3.30
2023-04-22T01:54:49.308Z,3.50
2023-04-22T01:57:16.988Z,3.20
2023-04-22T01:59:44.917Z,2.72
2023-04-22T02:02:12.733Z,2.90
2023-04-22T02:04:40.422Z,2.30
2023-04-22T02:07:08.040Z,2.58
2023-04-22T02:09:39.040Z,3.03
2023-04-22T02:12:07.594Z,2.30
2023-04-22T02:14:35.350Z,2.28
2023-04-22T02:17:04.106Z,2.67
2023-04-22T02:19:31.805Z,3.33
2023-04-22T02:21:59.739Z,3.10
2023-04-22T02:24:27.435Z,2.90
2023-04-22T02:26:55.152Z,2.65
2023-04-22T02:29:24.327Z,3.05
2023-04-22T02:31:51.911Z,3.08
2023-04-22T02:34:19.637Z,2.50
2023-04-22T02:36:47.506Z,2.88
2023-04-22T02:39:15.454Z,2.40
2023-04-22T02:41:43.333Z,2.75
2023-04-22T02:44:11.570Z,2.72
2023-04-22T02:46:39.309Z,2.80
2023-04-22T02:49:06.925Z,3.15
2023-04-22T02:51:34.539Z,3.00
2023-04-22T02:54:02.088Z,2.08
2023-04-22T02:56:29.657Z,3.05
2023-04-22T02:58:57.348Z,2.83
2023-04-22T03:01:25.064Z,2.95
2023-04-22T03:03:54.647Z,2.72
2023-04-22T03:06:24.439Z,2.42
2023-04-22T03:08:52.200Z,2.80
2023-04-22T03:11:19.888Z,3.20
2023-04-22T03:13:48.754Z,2.83
2023-04-22T03:16:19.521Z,2.80
2023-04-22T03:18:47.922Z,3.38
2023-04-22T03:21:15.483Z,2.15
2023-04-22T03:23:44.102Z,2.60
2023-04-22T03:26:13.773Z,2.30
2023-04-22T03:28:43.193Z,2.45
2023-04-22T03:31:11.042Z,2.35
2023-04-22T03:33:38.871Z,2.92
2023-04-22T03:36:14.069Z,2.45
2023-04-22T03:38:41.730Z,2.40
2023-04-22T03:41:09.663Z,2.65
2023-04-22T03:43:41.200Z,2.58
2023-04-22T03:46:11.183Z,2.25
2023-04-22T03:48:46.402Z,2.75
2023-04-22T03:51:26.001Z,2.95
2023-04-22T03:53:54.787Z,3.58
2023-04-22T03:56:24.730Z,2.78
2023-04-22T03:58:55.887Z,4.10
2023-04-22T04:01:24.061Z,3.70
2023-04-22T04:03:54.418Z,3.25
2023-04-22T04:06:23.776Z,2.88
2023-04-22T04:08:51.399Z,3.63
2023-04-22T04:11:19.114Z,3.63
2023-04-22T04:13:47.843Z,2.88
2023-04-22T04:16:41.611Z,3.03
2023-04-22T04:19:15.165Z,2.33
2023-04-22T04:21:43.529Z,2.47
2023-04-22T04:24:11.419Z,2.95
2023-04-22T04:26:44.645Z,2.72
2023-04-22T04:29:21.587Z,2.60
2023-04-22T04:32:10.346Z,2.88
2023-04-22T04:34:38.136Z,2.55
2023-04-22T04:37:08.042Z,2.50
2023-04-22T04:39:55.013Z,2.85
2023-04-22T04:42:26.100Z,2.47
2023-04-22T04:45:01.220Z,2.20
2023-04-22T04:47:33.959Z,2.58
2023-04-22T04:50:12.576Z,2.35
2023-04-22T04:52:40.795Z,2.20
2023-04-22T04:55:08.895Z,2.22
2023-04-22T04:57:38.489Z,3.33
2023-04-22T05:00:08.063Z,2.85
2023-04-22T05:02:36.584Z,2.05
2023-04-22T05:05:04.827Z,3.55
2023-04-22T05:07:32.688Z,3.03
2023-04-22T05:10:00.798Z,2.78
2023-04-22T05:12:29.071Z,3.08
2023-04-22T05:14:57.371Z,2.60
2023-04-22T05:17:25.526Z,2.47
2023-04-22T05:19:53.151Z,3.03
2023-04-22T05:22:21.559Z,2.60
2023-04-22T05:24:49.622Z,3.72
2023-04-22T05:27:17.819Z,2.97
2023-04-22T05:29:45.662Z,2.75
2023-04-22T05:32:15.001Z,2.83
2023-04-22T05:34:42.700Z,3.35
2023-04-22T05:37:11.162Z,3.33
2023-04-22T05:39:44.022Z,3.22
2023-04-22T05:42:13.115Z,3.03
2023-04-22T05:44:41.354Z,3.08
2023-04-22T05:47:09.678Z,3.95
2023-04-22T05:49:37.387Z,4.25
2023-04-22T05:52:15.075Z,4.28
2023-04-22T05:55:00.798Z,3.20
2023-04-22T05:57:28.702Z,3.20
2023-04-22T05:59:57.351Z,2.92
2023-04-22T06:02:25.409Z,2.90
2023-04-22T06:04:53.483Z,3.45
2023-04-22T06:07:22.452Z,2.75
2023-04-22T06:09:59.413Z,2.55
2023-04-22T06:12:33.671Z,2.72
2023-04-22T06:15:01.569Z,2.40
2023-04-22T06:17:29.622Z,2.85
2023-04-22T06:19:57.726Z,2.67
2023-04-22T06:22:25.342Z,3.75
2023-04-22T06:24:52.897Z,2.85
2023-04-22T06:27:20.558Z,3.30
2023-04-22T06:29:48.245Z,2.90
2023-04-22T06:32:15.990Z,2.35
2023-04-22T06:34:43.561Z,2.63
2023-04-22T06:37:11.921Z,2.97
2023-04-22T06:39:40.552Z,2.80
2023-04-22T06:42:28.149Z,3.10
2023-04-22T06:45:14.163Z,2.85
2023-04-22T06:47:55.108Z,3.15
2023-04-22T06:50:28.048Z,3.33
2023-04-22T06:52:58.839Z,3.58
2023-04-22T06:55:26.587Z,3.30
2023-04-22T06:57:54.224Z,3.20
2023-04-22T07:00:22.178Z,3.05
2023-04-22T07:02:49.896Z,2.92
2023-04-22T07:05:17.829Z,3.15
2023-04-22T07:07:47.313Z,3.63
2023-04-22T07:10:19.823Z,2.67
2023-04-22T07:13:07.818Z,3.47
2023-04-22T07:15:35.425Z,2.90
2023-04-22T07:18:03.072Z,3.45
2023-04-22T07:20:30.734Z,3.30
2023-04-22T07:22:58.328Z,3.00
2023-04-22T07:25:25.920Z,2.90
2023-04-22T07:27:53.510Z,3.65
2023-04-22T07:30:21.159Z,3.08
2023-04-22T07:32:49.055Z,3.28
2023-04-22T07:35:16.772Z,7.90
2023-04-22T07:37:44.562Z,5.80
2023-04-22T07:40:14.180Z,5.65
2023-04-22T07:42:42.016Z,3.13
2023-04-22T07:45:09.725Z,3.05
2023-04-22T07:47:37.450Z,3.70
2023-04-22T07:50:05.716Z,2.90
2023-04-22T07:52:33.400Z,3.50
2023-04-22T07:55:01.107Z,3.47
2023-04-22T07:57:28.844Z,3.05
2023-04-22T08:00:02.045Z,2.75
2023-04-22T08:02:39.671Z,3.67
2023-04-22T08:05:07.705Z,3.97
2023-04-22T08:07:35.567Z,2.67
2023-04-22T08:10:03.484Z,3.30
2023-04-22T08:12:31.098Z,2.60
2023-04-22T08:14:58.778Z,3.03
2023-04-22T08:17:27.071Z,2.58
2023-04-22T08:19:54.617Z,3.08
2023-04-22T08:22:23.947Z,2.80
2023-04-22T08:24:51.572Z,3.08
2023-04-22T08:27:21.527Z,3.08
2023-04-22T08:29:49.140Z,3.03
2023-04-22T08:32:19.656Z,3.45
2023-04-22T08:34:47.352Z,4.13
2023-04-22T08:37:15.231Z,3.63
2023-04-22T08:39:42.864Z,3.85
2023-04-22T08:42:10.963Z,3.58
2023-04-22T08:44:39.625Z,2.85
2023-04-22T08:47:08.369Z,3.60
2023-04-22T08:49:39.174Z,4.22
2023-04-22T08:52:09.534Z,3.35
2023-04-22T08:54:37.587Z,3.58
2023-04-22T08:57:05.793Z,3.50
2023-04-22T08:59:35.553Z,2.97
2023-04-22T09:02:04.852Z,4.10
2023-04-22T09:04:32.938Z,3.92
2023-04-22T09:07:03.281Z,3.17
2023-04-22T09:09:32.503Z,3.20
2023-04-22T09:12:00.275Z,3.65
2023-04-22T09:14:28.370Z,3.50
2023-04-22T09:16:58.710Z,3.55
2023-04-22T09:19:26.360Z,3.55
2023-04-22T09:21:54.670Z,3.22
2023-04-22T09:24:22.781Z,4.88
2023-04-22T09:26:50.809Z,4.57
2023-04-22T09:29:18.539Z,13.18
2023-04-22T09:31:50.447Z,6.22
2023-04-22T09:34:18.476Z,3.42
2023-04-22T09:36:46.971Z,5.38
2023-04-22T09:39:14.962Z,3.63
2023-04-22T09:41:42.852Z,3.08
2023-04-22T09:44:16.006Z,3.60
2023-04-22T09:46:44.700Z,3.05
2023-04-22T09:49:12.420Z,3.47
2023-04-22T09:51:43.203Z,3.72
2023-04-22T09:54:11.500Z,2.67
2023-04-22T09:56:53.792Z,3.85
2023-04-22T09:59:28.318Z,3.33
2023-04-22T10:01:58.665Z,3.72
2023-04-22T10:04:26.839Z,3.30
2023-04-22T10:06:55.802Z,3.20
2023-04-22T10:09:26.050Z,2.90
2023-04-22T10:11:55.923Z,6.07
2023-04-22T10:14:24.220Z,3.72
2023-04-22T10:16:59.784Z,3.03
2023-04-22T10:19:28.193Z,3.13
2023-04-22T10:22:03.121Z,2.80
2023-04-22T10:24:36.819Z,3.20
2023-04-22T10:27:10.816Z,2.95
2023-04-22T10:29:40.941Z,4.15
2023-04-22T10:32:18.047Z,4.72
2023-04-22T10:34:49.702Z,4.55
2023-04-22T10:37:21.871Z,3.15
2023-04-22T10:42:37.106Z,13.75
2023-04-22T10:45:05.514Z,4.50
2023-04-22T10:47:37.898Z,3.67
2023-04-22T10:50:26.979Z,2.92
2023-04-22T10:53:00.351Z,4.28
2023-04-22T10:55:51.868Z,4.70
2023-04-22T10:58:22.153Z,3.50
2023-04-22T11:00:58.215Z,3.90
2023-04-22T11:03:29.222Z,3.25
2023-04-22T11:06:17.371Z,4.28
2023-04-22T11:09:13.224Z,3.10
2023-04-22T11:11:41.378Z,3.38
2023-04-22T11:14:10.365Z,4.38
2023-04-22T11:16:38.276Z,2.92
2023-04-22T11:19:05.905Z,3.45
2023-04-22T11:21:33.547Z,3.80
2023-04-22T11:24:06.258Z,5.20
2023-04-22T11:26:35.891Z,3.22
2023-04-22T11:29:03.680Z,3.88
2023-04-22T11:31:31.285Z,4.15
2023-04-22T11:34:01.962Z,2.88
2023-04-22T11:36:29.534Z,4.32
2023-04-22T11:38:57.514Z,4.53
2023-04-22T11:41:25.130Z,3.30
2023-04-22T11:43:54.969Z,4.15
2023-04-22T11:46:30.789Z,3.95
2023-04-22T11:49:17.222Z,2.88
2023-04-22T11:51:57.841Z,3.38
2023-04-22T11:54:36.483Z,3.00
2023-04-22T11:57:08.982Z,3.83
2023-04-22T11:59:36.602Z,3.28
2023-04-22T12:02:09.918Z,3.42
2023-04-22T12:04:41.473Z,2.92
2023-04-22T12:07:09.062Z,3.25
2023-04-22T12:09:36.740Z,3.40
2023-04-22T12:12:05.105Z,3.00
2023-04-22T12:14:36.325Z,3.10
2023-04-22T12:17:12.494Z,2.83
2023-04-22T12:19:40.398Z,3.47
2023-04-22T12:22:08.219Z,3.08
2023-04-22T12:24:35.852Z,2.80
2023-04-22T12:27:03.640Z,2.50
2023-04-22T12:29:32.702Z,3.47
2023-04-22T12:32:00.991Z,3.47
2023-04-22T12:34:28.597Z,3.58
2023-04-22T12:36:56.462Z,3.03
2023-04-22T12:39:23.986Z,3.10
2023-04-22T12:41:51.606Z,3.33
2023-04-22T12:44:19.308Z,3.10
2023-04-22T12:46:47.230Z,3.83
2023-04-22T12:49:14.871Z,2.92
2023-04-22T12:51:42.442Z,4.03
2023-04-22T12:54:10.790Z,5.07
2023-04-22T12:56:38.408Z,3.17
2023-04-22T12:59:06.007Z,3.33
2023-04-22T13:01:34.559Z,3.20
2023-04-22T13:04:03.727Z,3.40
2023-04-22T13:06:32.660Z,5.78
2023-04-22T13:09:00.327Z,2.90
2023-04-22T13:11:27.945Z,3.10
2023-04-22T13:13:55.468Z,2.70
2023-04-22T13:16:23.229Z,3.63
2023-04-22T13:18:51.149Z,3.13
2023-04-22T13:21:18.702Z,3.58
2023-04-22T13:23:46.305Z,3.25
2023-04-22T13:26:13.842Z,2.67
2023-04-22T13:28:42.077Z,2.72
2023-04-22T13:31:10.549Z,3.17
2023-04-22T13:33:38.134Z,3.35
2023-04-22T13:36:06.079Z,3.15
2023-04-22T13:38:33.651Z,3.58
2023-04-22T13:41:03.176Z,3.95
2023-04-22T13:43:31.068Z,4.55
2023-04-22T13:45:58.674Z,4.28
2023-04-22T13:48:27.591Z,7.03
2023-04-22T13:50:55.456Z,10.18
2023-04-22T13:53:23.025Z,14.73
2023-04-22T13:55:50.678Z,15.02
2023-04-22T13:58:18.272Z,11.18
2023-04-22T14:00:46.152Z,5.40
2023-04-22T14:03:14.013Z,22.00
2023-04-22T14:05:41.725Z,35.95
2023-04-22T14:08:09.314Z,15.15
2023-04-22T14:10:37.013Z,10.75
2023-04-22T14:13:04.979Z,7.55
2023-04-22T14:15:32.594Z,8.00
2023-04-22T14:18:00.376Z,4.78
2023-04-22T14:20:28.026Z,3.90
2023-04-22T14:22:56.066Z,7.75
2023-04-22T14:25:23.732Z,3.70
2023-04-22T14:27:51.476Z,3.65
2023-04-22T14:30:20.422Z,3.20
2023-04-22T14:32:48.828Z,5.07
2023-04-22T14:35:19.004Z,3.97
2023-04-22T14:37:46.656Z,3.70
2023-04-22T14:40:14.502Z,3.42
2023-04-22T14:42:42.234Z,3.08
2023-04-22T14:45:10.267Z,3.17
2023-04-22T14:47:37.887Z,3.30
2023-04-22T14:50:06.063Z,2.33
2023-04-22T14:52:33.814Z,2.60
2023-04-22T14:55:15.471Z,3.72
2023-04-22T14:57:43.497Z,3.33
2023-04-22T15:00:11.856Z,4.00
2023-04-22T15:02:40.081Z,9.15
2023-04-22T15:05:08.111Z,8.07
2023-04-22T15:07:35.744Z,8.10
2023-04-22T15:10:03.629Z,15.57
2023-04-22T15:12:31.185Z,7.63
2023-04-22T15:14:58.766Z,4.57
2023-04-22T15:17:27.459Z,3.42
2023-04-22T15:19:57.721Z,7.80
2023-04-22T15:22:25.646Z,15.65
2023-04-22T15:24:53.196Z,5.32
2023-04-22T15:27:20.929Z,8.02
2023-04-22T15:29:48.557Z,8.30
2023-04-22T15:32:16.203Z,9.85
2023-04-22T15:34:43.801Z,5.57
2023-04-22T15:37:13.404Z,5.68
2023-04-22T15:39:41.448Z,4.32
2023-04-22T15:42:09.365Z,4.68
2023-04-22T15:44:38.098Z,14.88
2023-04-22T15:47:06.101Z,7.35
2023-04-22T15:49:35.534Z,9.85
2023-04-22T15:52:03.795Z,18.83
2023-04-22T15:54:31.587Z,21.05
2023-04-22T15:56:59.174Z,13.57
2023-04-22T15:59:26.872Z,7.57
2023-04-22T16:01:55.115Z,5.72
2023-04-22T16:04:23.130Z,5.57
2023-04-22T16:06:51.692Z,5.47
2023-04-22T16:09:19.455Z,7.68
2023-04-22T16:11:47.380Z,7.28
2023-04-22T16:14:15.704Z,8.55
2023-04-22T16:16:43.654Z,7.15
2023-04-22T16:19:11.693Z,5.78
2023-04-22T16:21:39.387Z,8.27
2023-04-22T16:24:07.217Z,9.32
2023-04-22T16:26:36.153Z,8.52
2023-04-22T16:29:04.351Z,7.72
2023-04-22T16:31:32.036Z,7.40
2023-04-22T16:33:59.638Z,5.40
2023-04-22T16:36:27.462Z,5.60
2023-04-22T16:38:55.137Z,4.95
2023-04-22T16:41:23.067Z,9.73
2023-04-22T16:43:51.086Z,6.25
2023-04-22T16:46:18.815Z,4.40
2023-04-22T16:48:46.408Z,4.93
2023-04-22T16:51:14.220Z,4.72
2023-04-22T16:53:42.089Z,4.50
2023-04-22T16:56:09.965Z,5.13
2023-04-22T16:58:56.079Z,5.60
2023-04-22T17:01:24.249Z,6.85
2023-04-22T17:03:52.265Z,7.72
2023-04-22T17:06:20.057Z,5.50
2023-04-22T17:08:47.800Z,5.00
2023-04-22T17:11:15.913Z,4.85
2023-04-22T17:13:43.428Z,4.47
2023-04-22T17:16:11.221Z,4.32
2023-04-22T17:18:38.979Z,5.53
2023-04-22T17:21:06.563Z,6.10
2023-04-22T17:23:35.801Z,7.38
2023-04-22T17:26:03.422Z,9.25
2023-04-22T17:28:31.197Z,9.25
2023-04-22T17:30:58.953Z,7.55
2023-04-22T17:33:27.002Z,7.05
2023-04-22T17:35:54.742Z,7.22
2023-04-22T17:38:22.620Z,6.47
2023-04-22T17:40:50.448Z,7.55
2023-04-22T17:43:18.100Z,6.03
2023-04-22T17:45:45.740Z,6.65
2023-04-22T17:48:13.379Z,5.35
2023-04-22T17:50:41.137Z,5.63
2023-04-22T17:53:09.142Z,4.20
2023-04-22T17:55:36.668Z,4.20
2023-04-22T17:58:05.611Z,3.15
2023-04-22T18:00:34.426Z,4.60
2023-04-22T18:03:02.498Z,5.15
2023-04-22T18:05:30.362Z,5.82
2023-04-22T18:08:04.440Z,7.90
2023-04-22T18:10:32.149Z,7.80
2023-04-22T18:13:00.144Z,6.45
2023-04-22T18:15:27.791Z,5.63
2023-04-22T18:17:55.522Z,5.03
2023-04-22T18:20:23.339Z,4.50
2023-04-22T18:22:52.408Z,5.78
2023-04-22T18:25:20.392Z,5.00
2023-04-22T18:27:50.166Z,5.30
2023-04-22T18:30:18.036Z,4.97
2023-04-22T18:32:46.156Z,6.00
2023-04-22T18:35:15.969Z,6.10
2023-04-22T18:37:44.249Z,6.88
2023-04-22T18:40:13.006Z,5.95
2023-04-22T18:42:45.034Z,4.88
2023-04-22T18:45:13.069Z,5.30
2023-04-22T18:47:41.338Z,5.90
2023-04-22T18:50:09.097Z,7.47
2023-04-22T18:52:37.598Z,6.30
2023-04-22T18:55:06.539Z,6.10
2023-04-22T18:57:34.591Z,5.53
2023-04-22T19:00:03.270Z,4.65
2023-04-22T19:02:33.207Z,4.13
2023-04-22T19:05:02.090Z,3.80
2023-04-22T19:07:30.047Z,3.80
2023-04-22T19:09:57.640Z,4.22
2023-04-22T19:12:25.303Z,5.15
2023-04-22T19:14:53.170Z,5.15
2023-04-22T19:17:21.207Z,4.35
2023-04-22T19:19:49.279Z,4.65
2023-04-22T19:22:17.151Z,4.03
2023-04-22T19:24:45.072Z,3.88
2023-04-22T19:27:13.096Z,4.60
2023-04-22T19:29:42.368Z,6.53
2023-04-22T19:32:11.324Z,6.30
2023-04-22T19:34:39.325Z,6.60
2023-04-22T19:37:08.342Z,7.13
2023-04-22T19:39:38.346Z,6.95
2023-04-22T19:42:06.338Z,14.43
2023-04-22T19:44:34.886Z,9.02
2023-04-22T19:47:02.554Z,8.07
2023-04-22T19:49:32.938Z,8.13
2023-04-22T19:52:02.396Z,6.63
2023-04-22T19:54:30.903Z,6.65
2023-04-22T19:56:58.682Z,7.90
2023-04-22T19:59:31.149Z,8.07
2023-04-22T20:04:27.611Z,6.82
2023-04-22T20:06:57.678Z,6.57
2023-04-22T20:09:27.554Z,9.32
2023-04-22T20:11:55.534Z,9.20
2023-04-22T20:14:24.744Z,8.93
2023-04-22T20:16:53.751Z,9.00
2023-04-22T20:19:21.934Z,9.07
2023-04-22T20:21:51.348Z,5.60
2023-04-22T20:24:19.988Z,7.00
2023-04-22T20:26:50.610Z,7.18
2023-04-22T20:29:18.668Z,7.00
2023-04-22T20:31:46.941Z,8.57
2023-04-22T20:34:14.666Z,9.80
2023-04-22T20:36:43.229Z,9.25
2023-04-22T20:39:14.225Z,9.23
2023-04-22T20:41:42.313Z,8.32
2023-04-22T20:44:09.840Z,9.25
2023-04-22T20:46:38.023Z,7.80
2023-04-22T20:49:05.891Z,7.53
2023-04-22T20:51:33.901Z,7.03
2023-04-22T20:54:01.846Z,6.78
2023-04-22T20:56:29.600Z,5.47
2023-04-22T20:58:57.194Z,6.00
2023-04-22T21:01:27.432Z,5.75
2023-04-22T21:03:57.806Z,7.13
2023-04-22T21:06:28.155Z,8.50
2023-04-22T21:08:56.619Z,8.43
2023-04-22T21:11:24.455Z,10.50
2023-04-22T21:13:52.849Z,11.63
2023-04-22T21:16:24.124Z,9.95
2023-04-22T21:18:56.041Z,7.05
2023-04-22T21:21:27.517Z,6.25
2023-04-22T21:23:56.821Z,6.32
2023-04-22T21:26:24.476Z,8.43
2023-04-22T21:28:52.670Z,5.75
2023-04-22T21:31:21.140Z,5.57
2023-04-22T21:33:49.093Z,6.72
2023-04-22T21:36:16.873Z,7.10
2023-04-22T21:38:44.514Z,6.43
2023-04-22T21:41:12.174Z,6.20
2023-04-22T21:43:39.876Z,5.80
2023-04-22T21:46:07.683Z,5.45
2023-04-22T21:48:36.636Z,5.05
2023-04-22T21:51:04.375Z,5.63
2023-04-22T21:53:32.849Z,7.55
2023-04-22T21:56:00.526Z,11.68
2023-04-22T21:58:29.420Z,11.43
2023-04-22T22:00:58.521Z,10.05
2023-04-22T22:03:26.420Z,7.25
2023-04-22T22:05:54.860Z,8.65
2023-04-22T22:08:22.508Z,6.70
2023-04-22T22:10:50.310Z,6.72
2023-04-22T22:13:17.944Z,5.47
2023-04-22T22:15:45.881Z,5.53
2023-04-22T22:18:13.660Z,6.30
2023-04-22T22:20:41.845Z,5.60
2023-04-22T22:23:10.476Z,4.80
2023-04-22T22:25:38.156Z,4.75
2023-04-22T22:28:05.962Z,4.65
2023-04-22T22:30:33.826Z,4.13
2023-04-22T22:33:02.005Z,4.85
2023-04-22T22:35:30.789Z,3.95
2023-04-22T22:37:58.406Z,6.45
2023-04-22T22:40:26.221Z,6.15
2023-04-22T22:42:53.938Z,5.85
2023-04-22T22:45:21.644Z,7.28
2023-04-22T22:47:49.827Z,27.65
2023-04-22T22:50:17.613Z,20.10
2023-04-22T22:52:45.273Z,19.55
2023-04-22T22:55:13.869Z,27.00
2023-04-22T22:57:41.462Z,21.05
2023-04-22T23:00:11.256Z,17.25
2023-04-22T23:02:39.145Z,31.02
2023-04-22T23:05:10.563Z,24.30
2023-04-22T23:07:38.738Z,20.50
2023-04-22T23:10:07.798Z,12.38
2023-04-22T23:12:35.608Z,11.07
2023-04-22T23:15:03.560Z,13.07
2023-04-22T23:17:31.463Z,9.80
2023-04-22T23:20:01.306Z,8.30
2023-04-22T23:22:31.017Z,8.48
2023-04-22T23:24:59.029Z,7.72
2023-04-22T23:27:26.989Z,8.10
2023-04-22T23:29:54.728Z,7.13
2023-04-22T23:32:23.562Z,5.30
2023-04-22T23:34:53.400Z,5.03
2023-04-22T23:37:21.433Z,5.50
2023-04-22T23:39:49.093Z,7.53
2023-04-22T23:42:16.782Z,6.70
2023-04-22T23:44:44.655Z,6.97
2023-04-22T23:47:13.210Z,8.40
2023-04-22T23:49:41.635Z,8.30
2023-04-22T23:52:10.542Z,10.45
2023-04-22T23:54:39.035Z,11.25
2023-04-22T23:57:07.233Z,10.88
2023-04-22T23:59:35.102Z,7.93
